Time;durP1;ratioP1;P1;durP2;ratioP2;P2;SDS_P1;SDS_P2;PMS_P1;PMS_P2;Temp;Humidity;BMP_temperature;BMP_pressure;BME280_temperature;BME280_humidity;BME280_pressure;Samples;Min_cycle;Max_cycle;Signal;HPM_P1;HPM_P2
2021/11/11 00:01:41;;;;;;;53.33;29.92;;;2.50;99.90;;;;;;5085274;28;20394;-53
2021/11/11 00:04:10;;;;;;;52.20;29.40;;;2.40;99.90;;;;;;5081379;28;20388;-53
2021/11/11 00:06:36;;;;;;;52.38;28.92;;;3.00;99.90;;;;;;5079938;28;20393;-54
2021/11/11 00:09:03;;;;;;;55.03;29.02;;;2.40;99.90;;;;;;5078434;28;20400;-53
2021/11/11 00:11:29;;;;;;;62.57;31.00;;;2.30;99.90;;;;;;5083667;28;20916;-52
2021/11/11 00:13:55;;;;;;;52.10;29.00;;;2.80;99.90;;;;;;5081284;28;20437;-53
2021/11/11 00:16:21;;;;;;;52.05;28.65;;;2.40;99.90;;;;;;5078606;28;20402;-53
2021/11/11 00:18:46;;;;;;;43.97;26.48;;;2.40;99.90;;;;;;5076286;28;20859;-53
2021/11/11 00:21:12;;;;;;;45.47;26.03;;;2.50;99.90;;;;;;5078567;28;20752;-55
2021/11/11 00:23:38;;;;;;;53.10;26.27;;;2.50;99.90;;;;;;5078742;28;20399;-53
2021/11/11 00:26:04;;;;;;;46.67;25.58;;;2.90;99.90;;;;;;5082747;28;20751;-53
2021/11/11 00:28:29;;;;;;;42.03;24.02;;;2.60;99.90;;;;;;5083071;28;20390;-53
2021/11/11 00:30:55;;;;;;;38.80;23.60;;;2.70;99.90;;;;;;5079164;28;20478;-53
2021/11/11 00:33:21;;;;;;;49.67;24.60;;;2.50;99.90;;;;;;5074134;28;20485;-53
2021/11/11 00:35:46;;;;;;;42.65;23.73;;;2.50;99.90;;;;;;5064157;28;20492;-53
2021/11/11 00:38:12;;;;;;;46.97;24.33;;;2.50;99.90;;;;;;5058882;28;20434;-55
2021/11/11 00:40:38;;;;;;;47.75;23.63;;;2.40;99.90;;;;;;5074985;28;20420;-53
2021/11/11 00:43:04;;;;;;;37.53;22.27;;;2.50;99.90;;;;;;5078088;28;20462;-53
2021/11/11 00:45:30;;;;;;;44.13;23.90;;;2.50;99.90;;;;;;5075423;28;21154;-53
2021/11/11 00:47:55;;;;;;;41.80;24.02;;;2.50;99.90;;;;;;5075906;28;20898;-53
2021/11/11 00:50:25;;;;;;;43.23;23.10;;;3.80;99.90;;;;;;5086411;28;20858;-52
2021/11/11 00:52:51;;;;;;;43.90;23.25;;;2.60;99.90;;;;;;5075238;28;20402;-53
2021/11/11 00:55:17;;;;;;;40.60;23.50;;;2.50;99.90;;;;;;5075274;28;20420;-53
2021/11/11 00:57:43;;;;;;;43.70;23.33;;;2.60;99.90;;;;;;5068320;28;20406;-53
2021/11/11 01:00:11;;;;;;;42.25;23.85;;;2.60;99.90;;;;;;5064790;28;20447;-53
2021/11/11 01:02:38;;;;;;;44.30;22.50;;;2.50;99.90;;;;;;5083008;28;20376;-53
2021/11/11 01:05:05;;;;;;;42.75;22.52;;;2.60;99.90;;;;;;5084014;28;20918;-53
2021/11/11 01:07:31;;;;;;;43.05;22.85;;;2.60;99.90;;;;;;5080130;28;20919;-53
2021/11/11 01:09:57;;;;;;;40.60;23.50;;;2.60;99.90;;;;;;5079905;28;20422;-53
2021/11/11 01:12:22;;;;;;;42.10;22.30;;;2.60;99.90;;;;;;5081283;28;20878;-53
2021/11/11 01:14:48;;;;;;;44.65;22.40;;;3.30;99.90;;;;;;5082922;28;20414;-53
2021/11/11 01:17:14;;;;;;;46.87;23.97;;;2.90;99.90;;;;;;5084190;28;20434;-55
2021/11/11 01:19:40;;;;;;;44.60;24.00;;;2.70;99.90;;;;;;5080166;28;20391;-53
2021/11/11 01:22:06;;;;;;;40.63;23.20;;;2.70;99.90;;;;;;5079118;28;20431;-53
2021/11/11 01:24:32;;;;;;;42.10;23.58;;;2.80;99.90;;;;;;5064348;28;20880;-53
2021/11/11 01:26:58;;;;;;;39.50;22.08;;;2.80;99.90;;;;;;5081132;28;20374;-53
2021/11/11 01:29:23;;;;;;;39.72;22.60;;;2.80;99.90;;;;;;5060536;28;20950;-53
2021/11/11 01:31:49;;;;;;;39.72;22.73;;;2.70;99.90;;;;;;5078722;28;20914;-53
2021/11/11 01:34:15;;;;;;;41.67;22.17;;;2.70;99.90;;;;;;5079531;28;20488;-55
2021/11/11 01:36:41;;;;;;;42.60;23.27;;;2.70;99.90;;;;;;5078003;28;20430;-53
2021/11/11 01:39:06;;;;;;;42.05;23.20;;;2.60;99.90;;;;;;5085061;28;20427;-53
2021/11/11 01:41:33;;;;;;;42.80;23.60;;;2.60;99.90;;;;;;5084712;28;20398;-53
2021/11/11 01:43:59;;;;;;;44.08;23.92;;;3.80;99.90;;;;;;5081792;28;20393;-53
2021/11/11 01:46:24;;;;;;;41.67;22.88;;;2.50;99.90;;;;;;5082448;28;20849;-53
2021/11/11 01:48:50;;;;;;;42.53;23.60;;;2.60;99.90;;;;;;5082336;28;20453;-53
2021/11/11 01:51:17;;;;;;;47.17;23.67;;;2.60;99.90;;;;;;5081019;28;20388;-53
2021/11/11 01:53:43;;;;;;;45.70;24.98;;;2.60;99.90;;;;;;5085080;28;20479;-53
2021/11/11 01:56:09;;;;;;;41.63;22.80;;;2.60;99.90;;;;;;5081231;28;20382;-53
2021/11/11 01:58:34;;;;;;;39.90;22.05;;;2.70;99.90;;;;;;5079423;28;21014;-53
2021/11/11 02:01:00;;;;;;;37.35;21.05;;;2.80;99.90;;;;;;5079943;28;20394;-53
2021/11/11 02:03:26;;;;;;;41.63;22.37;;;2.70;99.90;;;;;;5079956;28;20396;-53
2021/11/11 02:05:53;;;;;;;43.55;22.92;;;3.00;99.90;;;;;;5082112;28;20378;-53
2021/11/11 02:08:19;;;;;;;40.70;22.48;;;2.70;99.90;;;;;;5078751;28;20394;-53
2021/11/11 02:10:45;;;;;;;40.85;21.98;;;3.40;99.90;;;;;;5081640;28;20413;-53
2021/11/11 02:13:12;;;;;;;43.30;22.43;;;3.10;99.90;;;;;;5078753;28;20738;-53
2021/11/11 02:15:38;;;;;;;46.22;24.08;;;2.70;99.90;;;;;;5085332;28;20406;-53
2021/11/11 02:18:06;;;;;;;43.20;22.25;;;2.60;99.90;;;;;;5090452;28;20853;-53
2021/11/11 02:20:34;;;;;;;43.40;22.63;;;3.90;99.90;;;;;;5089328;28;20382;-53
2021/11/11 02:23:01;;;;;;;40.03;22.42;;;2.60;99.90;;;;;;5090130;28;20386;-53
2021/11/11 02:25:28;;;;;;;36.00;21.73;;;2.60;99.90;;;;;;5089347;28;20427;-53
2021/11/11 02:28:01;;;;;;;38.22;21.85;;;2.60;99.90;;;;;;5089742;28;20385;-53
2021/11/11 02:30:29;;;;;;;39.45;21.92;;;2.90;99.90;;;;;;5086238;28;20426;-53
2021/11/11 02:32:55;;;;;;;37.42;21.60;;;2.80;99.90;;;;;;5078887;28;20399;-54
2021/11/11 02:35:21;;;;;;;42.37;22.23;;;2.80;99.90;;;;;;5077878;28;20407;-53
2021/11/11 02:37:47;;;;;;;36.88;20.75;;;3.00;99.90;;;;;;5089813;28;20389;-53
2021/11/11 02:40:18;;;;;;;40.58;20.65;;;2.80;99.90;;;;;;5089915;28;20761;-53
2021/11/11 02:42:45;;;;;;;41.03;23.05;;;2.80;99.90;;;;;;5090209;28;20381;-53
2021/11/11 02:45:14;;;;;;;44.13;23.63;;;2.90;99.90;;;;;;5088577;28;20382;-53
2021/11/11 02:47:41;;;;;;;38.70;22.50;;;2.90;99.90;;;;;;5089265;28;20855;-53
2021/11/11 02:50:07;;;;;;;41.90;22.45;;;2.80;99.90;;;;;;5089512;28;20385;-53
2021/11/11 02:52:33;;;;;;;43.10;23.38;;;2.70;99.90;;;;;;5088719;28;20393;-53
2021/11/11 02:54:59;;;;;;;41.63;22.30;;;2.80;99.90;;;;;;5089679;28;20401;-53
2021/11/11 02:57:27;;;;;;;48.13;22.93;;;3.50;99.90;;;;;;5088832;28;20965;-53
2021/11/11 02:59:55;;;;;;;40.75;23.10;;;2.70;99.90;;;;;;5089484;28;20527;-54
2021/11/11 03:02:24;;;;;;;37.85;21.95;;;3.40;99.90;;;;;;5088818;28;20389;-55
2021/11/11 03:04:51;;;;;;;44.10;23.00;;;2.70;99.90;;;;;;5089721;28;20393;-53
2021/11/11 03:07:17;;;;;;;43.65;23.50;;;2.70;99.90;;;;;;5089240;28;20384;-54
2021/11/11 03:09:44;;;;;;;40.67;21.88;;;2.60;99.90;;;;;;5088787;28;20439;-53
2021/11/11 03:12:10;;;;;;;45.15;23.02;;;2.40;99.90;;;;;;5089834;28;20414;-53
2021/11/11 03:14:36;;;;;;;45.03;24.88;;;2.50;99.90;;;;;;5087921;28;20402;-53
2021/11/11 03:17:04;;;;;;;51.00;25.92;;;2.50;99.90;;;;;;5089409;28;20382;-53
2021/11/11 03:19:31;;;;;;;48.45;25.98;;;2.50;99.90;;;;;;5088748;28;20441;-53
2021/11/11 03:21:57;;;;;;;45.00;25.60;;;2.50;99.90;;;;;;5089437;28;20386;-53
2021/11/11 03:24:22;;;;;;;53.95;26.80;;;2.50;99.90;;;;;;5088691;28;20378;-55
2021/11/11 03:26:48;;;;;;;44.17;26.40;;;2.60;99.90;;;;;;5089310;28;20859;-53
2021/11/11 03:29:14;;;;;;;47.77;26.33;;;2.60;99.90;;;;;;5089484;28;20916;-53
2021/11/11 03:31:40;;;;;;;50.00;26.70;;;2.60;99.90;;;;;;5088486;28;20499;-53
2021/11/11 03:34:06;;;;;;;49.00;28.63;;;3.10;99.90;;;;;;5071267;28;20405;-53
2021/11/11 03:36:32;;;;;;;55.55;29.30;;;2.60;99.90;;;;;;5088259;28;20386;-53
2021/11/11 03:38:58;;;;;;;48.60;27.67;;;2.60;99.90;;;;;;5088994;28;20905;-53
2021/11/11 03:41:25;;;;;;;51.30;28.27;;;3.80;99.90;;;;;;5088091;28;20935;-55
2021/11/11 03:43:51;;;;;;;51.43;30.20;;;2.60;99.90;;;;;;5089375;28;20430;-54
2021/11/11 03:46:17;;;;;;;51.70;29.20;;;2.70;99.90;;;;;;5088926;28;20390;-53
2021/11/11 03:48:42;;;;;;;57.00;29.10;;;2.60;99.90;;;;;;5070168;28;20423;-53
2021/11/11 03:51:08;;;;;;;59.05;31.35;;;2.60;99.90;;;;;;5089196;28;20381;-53
2021/11/11 03:53:34;;;;;;;54.15;30.20;;;3.50;99.90;;;;;;5088246;28;20411;-53
2021/11/11 03:56:00;;;;;;;52.15;27.95;;;2.50;99.90;;;;;;5090114;28;20874;-53
2021/11/11 03:58:26;;;;;;;50.00;27.90;;;2.50;99.90;;;;;;5091614;28;20735;-53
2021/11/11 04:00:51;;;;;;;44.30;25.67;;;3.60;99.90;;;;;;5092816;28;20374;-53
2021/11/11 04:03:17;;;;;;;50.73;26.47;;;3.50;99.90;;;;;;5092647;28;20853;-53
2021/11/11 04:05:45;;;;;;;46.20;25.88;;;2.40;99.90;;;;;;5073807;28;20400;-53
2021/11/11 04:08:10;;;;;;;44.70;25.58;;;2.30;99.90;;;;;;5092713;28;20386;-53
2021/11/11 04:10:36;;;;;;;44.10;25.20;;;2.10;99.90;;;;;;5085658;28;20460;-53
2021/11/11 04:13:04;;;;;;;49.38;27.60;;;2.00;99.90;;;;;;5054643;28;20391;-53
2021/11/11 04:15:31;;;;;;;47.47;26.85;;;2.00;99.90;;;;;;5071257;28;20407;-53
2021/11/11 04:17:57;;;;;;;45.47;26.67;;;3.40;99.90;;;;;;5072238;28;20376;-53
2021/11/11 04:20:23;;;;;;;46.55;26.98;;;2.10;99.90;;;;;;5072172;28;20427;-54
2021/11/11 04:22:49;;;;;;;48.88;28.05;;;2.10;99.90;;;;;;5071545;28;20411;-53
2021/11/11 04:25:28;;;;;;;56.60;29.15;;;2.60;99.90;;;;;;5072093;28;20434;-53
2021/11/11 04:28:00;;;;;;;54.53;28.70;;;1.70;99.90;;;;;;5072156;28;20372;-53
2021/11/11 04:30:30;;;;;;;56.25;29.63;;;1.80;99.90;;;;;;5061824;28;20453;-54
2021/11/11 04:32:57;;;;;;;52.70;29.17;;;1.70;99.90;;;;;;5051943;28;20490;-53
2021/11/11 04:35:23;;;;;;;56.45;29.77;;;2.50;99.90;;;;;;5051563;28;20428;-54
2021/11/11 04:38:00;;;;;;;48.97;27.15;;;2.00;99.90;;;;;;5051123;28;20425;-53
2021/11/11 04:40:56;;;;;;;55.28;27.05;;;;;;;;;;5053559;28;20435;-55
2021/11/11 04:59:44;;;;;;;47.22;25.73;;;2.90;99.90;;;;;;5051338;28;20368;-53
2021/11/11 05:04:35;;;;;;;44.25;26.63;;;1.90;99.90;;;;;;5069426;28;20445;-53
2021/11/11 05:07:02;;;;;;;49.35;26.88;;;2.90;99.90;;;;;;5067519;28;20459;-53
2021/11/11 05:09:27;;;;;;;50.60;27.92;;;1.80;99.90;;;;;;5055313;28;20382;-52
2021/11/11 05:11:53;;;;;;;47.25;26.45;;;1.60;99.90;;;;;;5055952;28;20446;-53
2021/11/11 05:14:19;;;;;;;50.10;27.47;;;2.80;99.90;;;;;;5051875;28;20404;-53
2021/11/11 05:16:46;;;;;;;48.33;26.70;;;1.60;99.90;;;;;;5067136;28;20499;-52
2021/11/11 05:19:11;;;;;;;52.65;27.70;;;1.70;99.90;;;;;;5071101;28;20879;-53
2021/11/11 05:21:37;;;;;;;47.47;25.55;;;1.70;99.90;;;;;;5058577;28;20377;-53
2021/11/11 05:24:04;;;;;;;44.58;25.25;;;2.60;99.90;;;;;;5032631;28;20397;-53
2021/11/11 05:26:30;;;;;;;53.65;26.73;;;1.80;99.90;;;;;;5050305;28;20466;-52
2021/11/11 05:28:56;;;;;;;41.55;26.50;;;1.60;99.90;;;;;;5050605;28;20468;-51
2021/11/11 05:31:22;;;;;;;48.47;27.88;;;1.50;99.90;;;;;;5051751;28;20783;-51
2021/11/11 05:33:47;;;;;;;51.73;27.30;;;1.60;99.90;;;;;;5063221;28;20465;-52
2021/11/11 05:36:13;;;;;;;45.05;27.40;;;1.50;99.90;;;;;;5070283;28;20407;-51
2021/11/11 05:38:39;;;;;;;47.78;26.77;;;1.50;99.90;;;;;;5069708;28;20411;-51
2021/11/11 05:41:05;;;;;;;47.10;26.90;;;1.40;99.90;;;;;;5070010;28;20868;-51
2021/11/11 05:43:31;;;;;;;46.53;26.90;;;3.40;99.90;;;;;;5069480;28;20407;-53
2021/11/11 05:45:56;;;;;;;52.60;27.97;;;1.60;99.90;;;;;;5052157;28;20384;-51
2021/11/11 05:48:22;;;;;;;51.30;28.70;;;1.60;99.90;;;;;;5070156;28;20380;-51
2021/11/11 05:50:48;;;;;;;48.53;26.80;;;3.30;99.90;;;;;;5069311;28;20473;-51
2021/11/11 05:53:14;;;;;;;43.95;25.52;;;1.70;99.90;;;;;;5070220;28;20391;-52
2021/11/11 05:55:39;;;;;;;46.97;25.48;;;2.00;99.90;;;;;;5069489;28;20845;-51
2021/11/11 05:58:05;;;;;;;48.87;27.27;;;1.70;99.90;;;;;;5061952;28;20435;-51
2021/11/11 06:00:31;;;;;;;48.27;27.90;;;2.30;99.90;;;;;;5064285;28;20367;-53
2021/11/11 06:02:57;;;;;;;54.10;29.00;;;1.70;99.90;;;;;;5070001;28;20883;-51
2021/11/11 06:05:25;;;;;;;51.35;26.75;;;1.80;99.90;;;;;;5070066;28;20803;-51
2021/11/11 06:07:51;;;;;;;48.40;27.83;;;1.80;99.90;;;;;;5066332;28;20380;-52
2021/11/11 06:10:17;;;;;;;57.50;30.23;;;1.80;99.90;;;;;;5062787;28;20409;-51
2021/11/11 06:12:43;;;;;;;56.03;30.42;;;2.60;99.90;;;;;;5080305;28;20699;-52
2021/11/11 06:15:09;;;;;;;56.00;31.17;;;1.90;99.90;;;;;;5079175;28;20396;-52
2021/11/11 06:17:35;;;;;;;57.55;31.75;;;2.00;99.90;;;;;;5077565;28;20406;-52
2021/11/11 06:20:09;;;;;;;61.10;32.13;;;2.00;99.90;;;;;;5079570;28;20814;-52
2021/11/11 06:22:35;;;;;;;54.25;28.73;;;2.00;99.90;;;;;;5081851;28;20382;-53
2021/11/11 06:25:01;;;;;;;51.07;29.50;;;2.10;99.90;;;;;;5085116;28;20417;-52
2021/11/11 06:27:27;;;;;;;53.50;29.45;;;3.40;99.90;;;;;;5061691;28;20473;-52
2021/11/11 06:29:53;;;;;;;49.35;28.17;;;1.70;99.90;;;;;;5079269;28;20370;-52
2021/11/11 06:32:18;;;;;;;50.20;28.20;;;1.60;99.90;;;;;;5078797;28;20935;-52
2021/11/11 06:34:44;;;;;;;51.23;29.00;;;2.40;99.90;;;;;;5070736;28;20478;-52
2021/11/11 06:37:10;;;;;;;49.80;27.90;;;1.90;99.90;;;;;;5069235;28;20384;-52
2021/11/11 06:39:37;;;;;;;48.60;27.53;;;1.80;99.90;;;;;;5068526;28;20379;-54
2021/11/11 06:42:03;;;;;;;48.20;29.10;;;2.50;99.90;;;;;;5069180;28;20388;-53
2021/11/11 06:44:29;;;;;;;54.22;29.15;;;1.80;99.90;;;;;;5069299;28;20915;-53
2021/11/11 06:46:54;;;;;;;51.40;28.00;;;1.80;99.90;;;;;;5068729;28;20449;-52
2021/11/11 06:49:20;;;;;;;51.90;27.65;;;3.30;99.90;;;;;;5051457;28;20387;-53
2021/11/11 06:51:46;;;;;;;51.67;28.83;;;1.80;99.90;;;;;;5068003;28;20384;-52
2021/11/11 06:54:12;;;;;;;49.15;28.02;;;1.90;99.90;;;;;;5086479;28;20455;-53
2021/11/11 06:56:38;;;;;;;49.40;26.23;;;3.10;99.90;;;;;;5088842;28;20735;-54
2021/11/11 06:59:04;;;;;;;52.10;27.73;;;3.20;99.90;;;;;;5089673;28;20389;-53
2021/11/11 07:01:30;;;;;;;50.00;27.38;;;2.30;99.90;;;;;;5089611;28;20384;-52
2021/11/11 07:03:55;;;;;;;54.00;29.85;;;2.30;99.90;;;;;;5082954;28;21013;-53
2021/11/11 07:06:21;;;;;;;45.67;27.77;;;2.50;99.90;;;;;;5061011;28;20897;-53
2021/11/11 07:08:47;;;;;;;48.97;25.20;;;2.60;99.90;;;;;;5087893;28;20413;-53
2021/11/11 07:11:13;;;;;;;44.55;25.02;;;3.00;99.90;;;;;;5077750;28;20412;-52
2021/11/11 07:13:38;;;;;;;45.28;26.38;;;3.10;99.90;;;;;;5064139;28;20819;-54
2021/11/11 07:16:04;;;;;;;42.50;24.77;;;4.50;99.90;;;;;;5048880;28;20513;-52
2021/11/11 07:18:30;;;;;;;42.57;24.50;;;3.20;99.90;;;;;;5049208;28;20454;-53
2021/11/11 07:20:56;;;;;;;42.50;24.93;;;3.40;99.90;;;;;;5048193;28;20457;-53
2021/11/11 07:23:23;;;;;;;45.90;25.20;;;3.70;99.90;;;;;;5063319;28;20467;-52
2021/11/11 07:25:53;;;;;;;45.75;25.77;;;3.50;99.90;;;;;;5068257;28;20391;-52
2021/11/11 07:28:19;;;;;;;44.35;26.00;;;3.70;99.90;;;;;;5064482;28;20383;-54
2021/11/11 07:30:46;;;;;;;44.60;26.40;;;3.60;99.90;;;;;;5068922;28;20726;-53
2021/11/11 07:33:13;;;;;;;42.97;25.10;;;3.50;99.90;;;;;;5073358;28;20380;-53
2021/11/11 07:35:40;;;;;;;38.63;23.40;;;4.00;99.90;;;;;;5072079;28;20486;-56
2021/11/11 07:38:08;;;;;;;46.47;25.05;;;3.80;99.90;;;;;;5073228;28;20396;-54
2021/11/11 07:40:35;;;;;;;42.67;24.75;;;4.40;99.90;;;;;;5057816;28;20389;-52
2021/11/11 07:43:02;;;;;;;38.70;22.23;;;4.00;99.90;;;;;;5052983;28;20408;-52
2021/11/11 07:45:29;;;;;;;39.47;21.98;;;4.50;99.90;;;;;;5072080;28;20793;-52
2021/11/11 07:48:01;;;;;;;36.13;19.83;;;4.20;99.90;;;;;;5072086;28;20388;-52
2021/11/11 07:50:29;;;;;;;38.45;22.77;;;3.90;99.90;;;;;;5072419;28;20380;-53
2021/11/11 07:52:57;;;;;;;39.67;22.48;;;3.40;99.90;;;;;;5071879;28;20891;-53
2021/11/11 07:55:23;;;;;;;33.92;21.55;;;3.40;99.90;;;;;;5072746;28;20490;-53
2021/11/11 07:57:50;;;;;;;43.70;24.20;;;3.40;99.90;;;;;;5071844;28;20841;-53
2021/11/11 08:00:16;;;;;;;51.40;23.58;;;3.30;99.90;;;;;;5072640;28;20483;-54
2021/11/11 08:02:43;;;;;;;66.68;24.63;;;3.40;99.90;;;;;;5071465;28;20391;-54
2021/11/11 08:05:12;;;;;;;64.22;24.38;;;3.40;99.90;;;;;;5072969;28;20398;-53
2021/11/11 08:07:38;;;;;;;55.40;25.25;;;3.40;99.90;;;;;;5068614;28;20392;-54
2021/11/11 08:10:04;;;;;;;48.85;22.85;;;2.40;99.90;;;;;;5070269;28;20399;-54
2021/11/11 08:12:31;;;;;;;80.85;25.15;;;3.80;99.90;;;;;;5092417;28;20385;-53
2021/11/11 08:14:57;;;;;;;69.68;25.95;;;4.00;99.90;;;;;;5080991;28;20419;-53
2021/11/11 08:17:24;;;;;;;90.68;28.85;;;3.80;99.90;;;;;;5072007;28;20721;-53
2021/11/11 08:19:56;;;;;;;86.63;29.67;;;3.40;99.90;;;;;;5071356;28;20387;-53
2021/11/11 08:22:25;;;;;;;75.72;26.42;;;3.30;99.90;;;;;;5071972;28;20384;-54
2021/11/11 08:24:51;;;;;;;82.10;28.60;;;3.40;99.90;;;;;;5053383;28;20415;-53
2021/11/11 08:27:18;;;;;;;53.20;24.20;;;3.40;99.90;;;;;;5071917;28;20398;-53
2021/11/11 08:29:45;;;;;;;44.63;21.50;;;3.70;99.90;;;;;;5071049;28;20379;-54
2021/11/11 08:32:12;;;;;;;40.27;20.27;;;4.10;99.90;;;;;;5071735;28;20450;-53
2021/11/11 08:34:39;;;;;;;47.72;20.88;;;4.40;99.90;;;;;;5071845;28;20440;-53
2021/11/11 08:37:05;;;;;;;43.20;20.98;;;4.50;99.90;;;;;;5053006;28;20530;-53
2021/11/11 08:39:31;;;;;;;38.53;20.10;;;4.80;99.90;;;;;;5071809;28;20491;-53
2021/11/11 08:41:57;;;;;;;33.13;19.63;;;4.70;99.90;;;;;;5070910;28;20387;-53
2021/11/11 08:44:23;;;;;;;30.13;18.73;;;6.30;99.90;;;;;;5090837;28;20391;-51
2021/11/11 08:46:50;;;;;;;30.77;18.63;;;5.90;99.90;;;;;;5072871;28;20484;-51
2021/11/11 08:49:17;;;;;;;29.02;19.30;;;6.70;99.90;;;;;;5091889;28;20378;-51
2021/11/11 08:51:44;;;;;;;33.70;18.93;;;6.70;99.90;;;;;;5090894;28;20386;-54
2021/11/11 08:54:11;;;;;;;29.77;18.35;;;7.50;99.90;;;;;;5091773;28;20370;-52
2021/11/11 08:56:37;;;;;;;26.95;18.15;;;8.20;99.90;;;;;;5089415;28;20394;-53
2021/11/11 08:59:04;;;;;;;27.88;17.77;;;8.50;99.90;;;;;;5091331;28;20370;-53
2021/11/11 09:01:31;;;;;;;26.98;18.08;;;8.90;99.90;;;;;;5092367;28;20828;-53
2021/11/11 09:03:58;;;;;;;26.52;17.65;;;8.60;99.90;;;;;;5091036;28;20401;-54
2021/11/11 09:06:25;;;;;;;25.03;15.77;;;8.60;99.90;;;;;;5091601;28;20865;-54
2021/11/11 09:08:52;;;;;;;24.90;16.65;;;7.50;99.90;;;;;;5091083;28;20413;-53
2021/11/11 09:11:22;;;;;;;29.45;16.20;;;8.00;99.90;;;;;;5081071;28;20411;-52
2021/11/11 09:13:48;;;;;;;28.98;15.52;;;7.20;99.90;;;;;;5062556;28;20447;-52
2021/11/11 09:16:14;;;;;;;32.28;14.80;;;6.30;99.90;;;;;;5056373;28;20407;-52
2021/11/11 09:18:41;;;;;;;26.08;15.60;;;5.80;99.90;;;;;;5064275;28;20392;-52
2021/11/11 09:21:09;;;;;;;32.55;17.13;;;5.50;99.90;;;;;;5050981;28;20967;-51
2021/11/11 09:23:37;;;;;;;26.67;16.33;;;5.20;99.90;;;;;;5070823;28;20372;-52
2021/11/11 09:26:03;;;;;;;31.98;15.95;;;5.00;99.90;;;;;;5070298;28;20781;-52
2021/11/11 09:28:30;;;;;;;27.23;16.88;;;5.00;99.90;;;;;;5071174;28;20376;-52
2021/11/11 09:30:56;;;;;;;26.60;15.25;;;4.80;99.90;;;;;;5069859;28;20390;-52
2021/11/11 09:33:23;;;;;;;33.03;17.75;;;4.80;99.90;;;;;;5070860;28;20376;-52
2021/11/11 09:35:53;;;;;;;32.65;18.70;;;5.10;99.90;;;;;;5069695;28;21012;-52
2021/11/11 09:38:20;;;;;;;29.90;17.45;;;4.90;99.90;;;;;;5070412;28;20445;-52
2021/11/11 09:40:46;;;;;;;30.73;19.08;;;4.80;99.90;;;;;;5069909;28;20449;-54
2021/11/11 09:43:13;;;;;;;29.02;17.23;;;4.90;99.90;;;;;;5066301;28;20490;-52
2021/11/11 09:45:38;;;;;;;28.58;16.05;;;4.80;99.90;;;;;;5068694;28;20415;-53
2021/11/11 09:48:05;;;;;;;24.88;16.00;;;6.30;99.90;;;;;;5069861;28;21017;-52
2021/11/11 09:50:32;;;;;;;25.52;16.45;;;4.70;99.90;;;;;;5069195;28;20411;-53
2021/11/11 09:53:05;;;;;;;26.42;16.75;;;4.90;99.90;;;;;;5069224;28;20379;-52
2021/11/11 09:58:34;;;;;;;27.77;16.70;;;5.20;99.90;;;;;;5070063;28;20421;-53
2021/11/11 10:01:04;;;;;;;29.47;17.00;;;5.40;99.90;;;;;;5069595;28;20364;-53
2021/11/11 10:03:30;;;;;;;28.15;16.45;;;5.60;99.90;;;;;;5070080;28;20372;-52
2021/11/11 10:05:56;;;;;;;31.58;16.02;;;5.30;99.90;;;;;;5069473;28;20388;-52
2021/11/11 10:08:40;;;;;;;38.70;18.10;;;5.20;99.90;;;;;;5067660;28;20409;-53
2021/11/11 10:11:24;;;;;;;55.75;24.95;;;5.00;99.90;;;;;;5077946;28;20490;-53
2021/11/11 10:14:01;;;;;;;37.80;20.15;;;5.10;99.90;;;;;;5083482;28;20466;-55
2021/11/11 10:16:27;;;;;;;34.13;19.63;;;5.00;99.90;;;;;;5090335;28;20421;-52
2021/11/11 10:18:56;;;;;;;61.63;18.98;;;5.30;99.90;;;;;;5089266;28;20423;-53
2021/11/11 10:21:36;;;;;;;45.22;19.83;;;5.40;99.90;;;;;;5071936;28;20403;-53
2021/11/11 10:24:34;;;;;;;36.33;18.80;;;5.50;99.90;;;;;;5089138;28;20381;-53
2021/11/11 10:27:13;;;;;;;32.00;18.40;;;5.70;99.90;;;;;;5088974;28;20369;-53
2021/11/11 10:29:50;;;;;;;34.10;19.25;;;6.00;99.90;;;;;;5090095;28;20880;-52
2021/11/11 10:32:26;;;;;;;42.85;21.05;;;5.90;99.90;;;;;;5088913;28;20394;-52
2021/11/11 10:34:57;;;;;;;45.30;20.60;;;5.70;99.90;;;;;;5088026;28;20428;-51
2021/11/11 10:37:27;;;;;;;41.42;18.70;;;5.70;99.90;;;;;;5090141;28;20497;-54
2021/11/11 10:40:11;;;;;;;48.97;20.02;;;5.50;99.90;;;;;;5089070;28;20467;-51
2021/11/11 10:42:39;;;;;;;58.35;19.63;;;5.40;99.90;;;;;;5089696;28;20386;-54
2021/11/11 10:45:10;;;;;;;38.05;18.63;;;5.40;99.90;;;;;;5088600;28;20425;-54
2021/11/11 10:47:38;;;;;;;36.08;19.05;;;5.30;99.90;;;;;;5089260;28;20863;-52
2021/11/11 10:50:09;;;;;;;31.55;19.05;;;5.60;99.90;;;;;;5077717;28;20406;-52
2021/11/11 10:52:49;;;;;;;52.75;20.70;;;5.70;99.90;;;;;;5082524;28;20841;-52
2021/11/11 10:55:23;;;;;;;41.00;20.33;;;5.70;99.90;;;;;;5083522;28;20860;-52
2021/11/11 10:57:54;;;;;;;33.53;19.40;;;5.60;99.90;;;;;;5087478;28;20392;-53
2021/11/11 11:00:26;;;;;;;33.53;18.40;;;5.60;99.90;;;;;;5086995;28;20880;-51
2021/11/11 11:03:14;;;;;;;29.67;17.20;;;5.80;99.90;;;;;;5068990;28;20398;-51
2021/11/11 11:05:52;;;;;;;34.67;19.15;;;5.90;99.90;;;;;;5069729;28;20396;-52
2021/11/11 11:08:35;;;;;;;30.77;18.30;;;5.90;99.90;;;;;;5074112;28;20422;-52
2021/11/11 11:11:04;;;;;;;30.98;17.50;;;6.00;99.90;;;;;;5072128;28;20411;-52
2021/11/11 11:13:43;;;;;;;31.50;19.05;;;6.00;99.90;;;;;;5078149;28;20480;-52
2021/11/11 11:16:11;;;;;;;35.53;18.30;;;6.00;99.90;;;;;;5092656;28;20408;-52
2021/11/11 11:18:39;;;;;;;30.60;17.33;;;6.20;99.90;;;;;;5093566;28;20439;-52
2021/11/11 11:21:18;;;;;;;33.63;18.98;;;6.10;99.90;;;;;;5074500;28;20906;-52
2021/11/11 11:23:49;;;;;;;34.42;20.73;;;6.00;99.90;;;;;;5093198;28;20378;-52
2021/11/11 11:26:22;;;;;;;29.67;18.10;;;6.10;99.90;;;;;;5092816;28;20894;-52
2021/11/11 11:28:51;;;;;;;32.08;18.92;;;6.20;99.90;;;;;;5093342;28;20385;-52
2021/11/11 11:31:47;;;;;;;30.10;18.83;;;6.20;99.90;;;;;;5093132;28;20432;-52
2021/11/11 11:34:18;;;;;;;30.15;17.92;;;6.40;99.90;;;;;;5090839;28;20733;-54
2021/11/11 11:36:49;;;;;;;43.45;23.35;;;6.70;99.90;;;;;;5093419;28;20382;-52
2021/11/11 11:39:23;;;;;;;38.90;21.35;;;6.40;99.90;;;;;;5089669;28;20401;-53
2021/11/11 11:41:49;;;;;;;35.70;21.48;;;6.30;99.90;;;;;;5090233;28;20378;-53
2021/11/11 11:44:21;;;;;;;67.22;34.65;;;5.90;99.90;;;;;;5093439;28;20375;-52
2021/11/11 11:47:46;;;;;;;38.50;23.63;;;5.80;99.90;;;;;;5093128;28;20465;-53
2021/11/11 11:49:57;;;;;;;38.60;22.95;;;5.70;99.90;;;;;;5081238;28;20401;-54
2021/11/11 11:52:25;;;;;;;39.03;21.75;;;5.90;99.90;;;;;;5093254;28;20374;-52
2021/11/11 11:55:03;;;;;;;64.22;35.10;;;6.10;99.90;;;;;;5092775;28;20402;-52
2021/11/11 12:00:06;;;;;;;51.75;21.38;;;6.30;99.90;;;;;;5091913;28;20390;-53
2021/11/11 12:02:45;;;;;;;39.33;20.67;;;6.40;99.90;;;;;;5092629;28;20401;-52
2021/11/11 12:41:19;;;;;;;34.92;21.27;;;6.50;99.90;;;;;;5073243;28;20414;-52
2021/11/11 12:44:12;;;;;;;38.78;23.15;;;6.20;99.90;;;;;;5085702;28;20569;-52
2021/11/11 12:46:46;;;;;;;38.88;22.13;;;6.20;99.90;;;;;;5064572;28;20394;-52
2021/11/11 12:49:34;;;;;;;38.92;21.05;;;6.10;99.90;;;;;;5080911;28;20411;-53
2021/11/11 12:52:23;;;;;;;36.78;21.83;;;6.20;99.90;;;;;;5085105;28;20489;-54
2021/11/11 12:54:50;;;;;;;54.70;23.30;;;6.20;99.90;;;;;;5078700;28;20407;-52
2021/11/11 12:57:17;;;;;;;40.78;23.35;;;6.00;99.90;;;;;;5080889;28;20649;-52
2021/11/11 12:59:43;;;;;;;44.25;27.80;;;6.10;99.90;;;;;;5074595;28;20386;-52
2021/11/11 13:02:10;;;;;;;45.72;25.35;;;6.30;99.90;;;;;;5079489;28;20387;-53
2021/11/11 13:04:54;;;;;;;40.40;23.40;;;6.50;99.90;;;;;;5080512;28;20472;-53
2021/11/11 13:07:24;;;;;;;51.03;25.07;;;6.30;99.90;;;;;;5080556;28;20384;-52
2021/11/11 13:10:04;;;;;;;53.17;25.98;;;6.20;99.90;;;;;;5077239;28;20403;-53
2021/11/11 13:12:29;;;;;;;45.30;24.45;;;5.80;99.90;;;;;;5078647;28;20748;-53
2021/11/11 13:15:08;;;;;;;57.90;26.92;;;5.80;99.90;;;;;;5078846;28;20436;-53
2021/11/11 13:17:42;;;;;;;54.65;28.65;;;5.80;99.90;;;;;;5079758;28;20404;-52
2021/11/11 13:20:25;;;;;;;49.33;28.67;;;6.00;99.90;;;;;;5078536;28;20396;-52
2021/11/11 13:23:05;;;;;;;59.35;27.98;;;6.20;99.90;;;;;;5077834;28;20763;-52
2021/11/11 13:28:59;;;;;;;44.38;24.10;;;6.10;99.90;;;;;;5080246;28;20387;-52
2021/11/11 14:00:01;;;;;;;43.50;24.90;;;6.10;99.90;;;;;;5073094;28;20377;-52
2021/11/11 16:04:03;;;;;;;233.10;54.58;;;5.30;99.90;;;;;;5081463;28;20677;-53
2021/11/11 16:20:41;;;;;;;224.05;53.58;;;4.60;99.90;;;;;;5081012;28;20433;-56
2021/11/11 16:23:19;;;;;;;411.97;60.03;;;4.90;99.90;;;;;;5081713;28;20864;-54
2021/11/11 16:28:10;;;;;;;236.93;52.90;;;4.70;99.90;;;;;;5083118;28;20396;-55
2021/11/11 16:30:36;;;;;;;314.93;52.20;;;4.80;99.90;;;;;;5079268;28;20481;-54
2021/11/11 16:33:02;;;;;;;247.43;49.47;;;4.80;99.90;;;;;;5078243;28;20391;-53